Time;durP1;ratioP1;P1;durP2;ratioP2;P2;SDS_P1;SDS_P2;PMS_P1;PMS_P2;Temp;Humidity;BMP_temperature;BMP_pressure;BME280_temperature;BME280_humidity;BME280_pressure;Samples;Min_cycle;Max_cycle;Signal;HPM_P1;HPM_P2
2023/05/16 00:01:01;;;;;;;16.17;1.58;;;10.00;99.90;;;;;;4988408;28;20036;-76
2023/05/16 00:03:28;;;;;;;10.82;1.10;;;10.00;99.90;;;;;;5011566;28;20029;-76
2023/05/16 00:05:55;;;;;;;6.88;1.08;;;10.00;99.90;;;;;;4995131;28;20056;-76
2023/05/16 00:08:21;;;;;;;14.30;1.10;;;10.00;99.90;;;;;;5010905;28;20037;-76
2023/05/16 00:10:48;;;;;;;11.63;1.20;;;10.00;99.90;;;;;;4986399;28;20041;-76
2023/05/16 00:13:14;;;;;;;14.48;1.33;;;10.00;99.90;;;;;;5018278;28;20045;-76
2023/05/16 00:15:42;;;;;;;11.60;1.20;;;10.00;99.90;;;;;;5022112;28;20032;-76
2023/05/16 00:18:13;;;;;;;11.43;1.63;;;10.00;99.90;;;;;;5006234;28;20404;-76
2023/05/16 00:20:40;;;;;;;9.32;1.30;;;10.00;99.90;;;;;;4989368;28;20028;-76
2023/05/16 00:23:06;;;;;;;8.35;0.77;;;10.00;99.90;;;;;;4994650;28;20048;-76
2023/05/16 00:25:32;;;;;;;10.30;1.02;;;10.00;99.90;;;;;;5010748;28;20036;-76
2023/05/16 00:27:58;;;;;;;11.55;1.40;;;9.90;99.90;;;;;;5010304;28;20033;-76
2023/05/16 00:30:25;;;;;;;13.70;0.95;;;9.90;99.90;;;;;;5002974;28;20040;-76
2023/05/16 00:32:51;;;;;;;16.52;2.65;;;9.90;99.90;;;;;;5014251;28;20066;-76
2023/05/16 00:35:17;;;;;;;13.15;2.17;;;9.90;99.90;;;;;;5003795;28;20462;-76
2023/05/16 00:37:43;;;;;;;11.90;1.10;;;9.80;99.90;;;;;;5022152;28;23639;-76
2023/05/16 00:40:10;;;;;;;10.27;1.30;;;9.70;99.90;;;;;;4995101;28;20041;-76
2023/05/16 00:42:37;;;;;;;8.93;0.70;;;9.70;99.90;;;;;;5011172;28;20032;-76
2023/05/16 00:45:05;;;;;;;10.70;0.93;;;9.60;99.90;;;;;;4992059;28;20053;-76
2023/05/16 00:47:32;;;;;;;10.00;1.08;;;9.50;99.90;;;;;;5009520;28;20810;-76
2023/05/16 00:49:59;;;;;;;10.68;1.13;;;9.50;99.90;;;;;;4982608;28;20605;-76
2023/05/16 00:52:26;;;;;;;11.90;1.45;;;9.40;99.90;;;;;;5006551;28;20720;-76
2023/05/16 00:54:52;;;;;;;8.45;0.70;;;9.40;99.90;;;;;;5013663;28;20037;-76
2023/05/16 00:57:18;;;;;;;10.43;0.98;;;9.30;99.90;;;;;;4984463;28;20037;-76
2023/05/16 00:59:48;;;;;;;11.45;1.73;;;9.20;99.90;;;;;;5014249;28;20205;-75
2023/05/16 01:02:17;;;;;;;9.55;1.48;;;9.20;99.90;;;;;;4993450;28;20397;-76
2023/05/16 01:04:47;;;;;;;11.40;1.65;;;9.10;99.90;;;;;;5013617;28;20052;-76
2023/05/16 01:07:13;;;;;;;7.68;0.65;;;9.10;99.90;;;;;;5010097;28;20037;-76
2023/05/16 01:09:40;;;;;;;10.00;0.90;;;9.00;99.90;;;;;;5004811;28;20542;-76
2023/05/16 01:12:22;;;;;;;10.98;0.70;;;9.00;99.90;;;;;;4993335;28;20041;-76
2023/05/16 01:15:03;;;;;;;11.85;0.88;;;9.00;99.90;;;;;;4977132;28;20045;-76
2023/05/16 01:17:55;;;;;;;8.75;0.77;;;8.90;99.90;;;;;;4992296;28;20033;-76
2023/05/16 01:20:40;;;;;;;9.25;0.70;;;8.90;99.90;;;;;;5007758;28;20025;-76
2023/05/16 01:23:18;;;;;;;9.27;0.80;;;8.80;99.90;;;;;;5018585;28;20033;-76
2023/05/16 01:25:44;;;;;;;8.18;1.00;;;8.80;99.90;;;;;;4994033;28;20044;-76
2023/05/16 01:28:14;;;;;;;10.30;0.70;;;8.70;99.90;;;;;;4993496;28;20036;-77
2023/05/16 01:30:42;;;;;;;13.57;1.10;;;8.70;99.90;;;;;;5003572;28;20029;-76
2023/05/16 01:33:09;;;;;;;7.47;0.75;;;8.60;99.90;;;;;;4988408;28;20107;-76
2023/05/16 01:35:57;;;;;;;8.75;1.02;;;8.60;99.90;;;;;;5008990;28;20041;-76
2023/05/16 01:38:35;;;;;;;11.65;1.63;;;8.60;99.90;;;;;;4996404;28;20060;-76
2023/05/16 01:41:10;;;;;;;4.40;0.73;;;8.50;99.90;;;;;;5012437;28;20028;-76
2023/05/16 01:43:45;;;;;;;6.90;0.50;;;8.50;99.90;;;;;;5019663;28;20476;-76
2023/05/16 01:46:20;;;;;;;7.60;0.60;;;8.50;99.90;;;;;;5011946;28;20033;-76
2023/05/16 01:49:05;;;;;;;14.30;1.20;;;8.40;99.90;;;;;;4993320;28;20059;-76
2023/05/16 01:51:34;;;;;;;8.52;0.70;;;8.40;99.90;;;;;;5012548;28;20036;-77
2023/05/16 01:54:07;;;;;;;11.00;1.13;;;8.30;99.90;;;;;;4996452;28;20060;-76
2023/05/16 01:56:35;;;;;;;11.43;1.17;;;8.30;99.90;;;;;;4988677;28;20033;-76
2023/05/16 01:59:01;;;;;;;7.07;0.70;;;8.30;99.90;;;;;;4997472;28;20579;-76
2023/05/16 02:01:29;;;;;;;6.25;1.00;;;8.20;99.90;;;;;;4997893;28;20040;-76
2023/05/16 02:03:56;;;;;;;7.57;0.95;;;8.20;99.90;;;;;;4988770;28;20040;-76
2023/05/16 02:06:23;;;;;;;7.00;0.85;;;8.20;99.90;;;;;;4995640;28;20040;-76
2023/05/16 02:08:49;;;;;;;8.80;0.93;;;8.10;99.90;;;;;;4985958;28;20400;-76
2023/05/16 02:11:17;;;;;;;10.68;0.82;;;8.10;99.90;;;;;;4972405;28;20031;-76
2023/05/16 02:13:43;;;;;;;7.47;0.75;;;8.10;99.90;;;;;;4997709;28;20060;-77
2023/05/16 02:16:10;;;;;;;11.98;0.70;;;8.10;99.90;;;;;;5015239;28;20040;-76
2023/05/16 02:18:37;;;;;;;5.10;0.57;;;8.00;99.90;;;;;;5021667;28;20084;-76
2023/05/16 02:21:04;;;;;;;13.90;0.90;;;8.00;99.90;;;;;;5015902;28;20037;-76
2023/05/16 02:23:31;;;;;;;6.10;0.52;;;8.00;99.90;;;;;;4991218;28;20048;-76
2023/05/16 02:25:57;;;;;;;8.05;0.63;;;8.00;99.90;;;;;;5016241;28;20041;-76
2023/05/16 02:28:23;;;;;;;6.60;0.70;;;8.00;99.90;;;;;;5013793;28;20033;-77
2023/05/16 02:31:00;;;;;;;10.38;0.60;;;7.90;99.90;;;;;;5006341;28;20040;-76
2023/05/16 02:33:27;;;;;;;9.48;1.50;;;7.90;99.90;;;;;;5013979;28;20037;-77
2023/05/16 02:35:54;;;;;;;10.25;0.80;;;7.90;99.90;;;;;;4998019;28;21159;-76
2023/05/16 02:38:20;;;;;;;9.10;0.65;;;7.90;99.90;;;;;;4999891;28;20041;-77
2023/05/16 02:40:48;;;;;;;5.00;0.45;;;7.90;99.90;;;;;;4998569;28;20040;-77
2023/05/16 02:43:14;;;;;;;9.15;1.27;;;7.90;99.90;;;;;;5005126;28;20036;-76
2023/05/16 02:45:42;;;;;;;9.57;1.10;;;7.80;99.90;;;;;;5012873;28;20663;-77
2023/05/16 02:48:09;;;;;;;10.70;0.70;;;7.80;99.90;;;;;;5015022;28;20032;-76
2023/05/16 02:50:36;;;;;;;7.88;0.50;;;7.80;99.90;;;;;;4989876;28;20049;-77
2023/05/16 02:53:02;;;;;;;6.32;0.50;;;7.80;99.90;;;;;;5012225;28;20045;-76
2023/05/16 02:55:29;;;;;;;7.88;0.60;;;7.70;99.90;;;;;;5014340;28;20052;-76
2023/05/16 02:57:56;;;;;;;7.82;0.50;;;7.70;99.90;;;;;;4997656;28;20402;-76
2023/05/16 03:00:23;;;;;;;8.20;0.70;;;7.70;99.90;;;;;;4981905;28;21010;-77
2023/05/16 03:02:50;;;;;;;10.10;0.70;;;7.70;99.90;;;;;;5023173;28;20419;-76
2023/05/16 03:05:16;;;;;;;5.93;0.60;;;7.70;99.90;;;;;;4987847;28;20047;-76
2023/05/16 03:07:43;;;;;;;11.57;0.73;;;7.60;99.90;;;;;;5013147;28;20343;-76
2023/05/16 03:10:10;;;;;;;5.63;0.50;;;7.60;99.90;;;;;;4988293;28;20049;-77
2023/05/16 03:12:37;;;;;;;8.57;0.77;;;7.60;99.90;;;;;;5013562;28;20041;-76
2023/05/16 03:15:04;;;;;;;13.10;2.22;;;7.60;99.90;;;;;;4995984;28;20056;-77
2023/05/16 03:17:31;;;;;;;8.15;0.60;;;7.50;99.90;;;;;;5013144;28;20028;-76
2023/05/16 03:19:57;;;;;;;7.43;0.65;;;7.50;99.90;;;;;;5011646;28;20052;-77
2023/05/16 03:22:23;;;;;;;8.65;0.82;;;7.50;99.90;;;;;;5006635;28;20361;-77
2023/05/16 03:24:50;;;;;;;14.68;1.02;;;7.50;99.90;;;;;;5005395;28;20673;-77
2023/05/16 03:27:16;;;;;;;10.27;0.75;;;7.50;99.90;;;;;;5014069;28;20056;-76
2023/05/16 03:29:42;;;;;;;13.50;1.35;;;7.40;99.90;;;;;;4985159;28;20060;-77
2023/05/16 03:32:10;;;;;;;10.73;0.70;;;7.50;99.90;;;;;;4979516;28;20043;-77
2023/05/16 03:34:36;;;;;;;8.20;0.98;;;7.50;99.90;;;;;;5013199;28;20527;-76
2023/05/16 03:37:03;;;;;;;9.48;0.93;;;7.40;99.90;;;;;;5012747;28;20049;-76
2023/05/16 03:39:29;;;;;;;6.38;0.50;;;7.50;99.90;;;;;;5010615;28;20040;-76
2023/05/16 03:41:56;;;;;;;6.68;0.68;;;7.50;99.90;;;;;;5005002;28;20056;-77
2023/05/16 03:44:22;;;;;;;8.35;0.90;;;7.60;99.90;;;;;;5022076;28;20805;-77
2023/05/16 03:46:50;;;;;;;6.75;0.60;;;7.60;99.90;;;;;;5000274;28;20476;-77
2023/05/16 03:49:16;;;;;;;9.60;0.75;;;7.70;99.90;;;;;;4990401;28;20041;-76
2023/05/16 03:51:42;;;;;;;7.63;0.95;;;7.70;99.90;;;;;;5010598;28;20060;-77
2023/05/16 03:54:09;;;;;;;6.68;0.75;;;7.70;99.90;;;;;;4978830;28;20051;-77
2023/05/16 03:56:35;;;;;;;9.75;0.80;;;7.80;99.90;;;;;;4981835;28;20460;-77
2023/05/16 03:59:01;;;;;;;15.27;1.17;;;7.90;99.90;;;;;;4996811;28;20973;-77
2023/05/16 04:01:28;;;;;;;8.25;0.80;;;8.00;99.90;;;;;;5000291;28;20076;-77
2023/05/16 04:03:54;;;;;;;8.38;0.60;;;8.10;99.90;;;;;;5021545;28;20496;-77
2023/05/16 04:06:21;;;;;;;4.70;0.50;;;8.20;99.90;;;;;;4991506;28;20038;-77
2023/05/16 04:08:47;;;;;;;5.85;0.52;;;8.30;99.90;;;;;;5012580;28;20933;-77
2023/05/16 04:11:13;;;;;;;5.20;0.43;;;8.40;99.90;;;;;;4990278;28;20498;-77
2023/05/16 04:13:40;;;;;;;6.57;1.17;;;8.50;99.90;;;;;;5011378;28;20120;-76
2023/05/16 04:16:06;;;;;;;6.15;0.50;;;8.50;99.90;;;;;;4995218;28;20041;-77
2023/05/16 04:18:33;;;;;;;7.90;0.82;;;8.50;99.90;;;;;;5007805;28;20044;-79
2023/05/16 04:20:59;;;;;;;6.93;0.60;;;8.50;99.90;;;;;;5006873;28;20494;-77
2023/05/16 04:23:25;;;;;;;7.95;0.70;;;8.50;99.90;;;;;;5023453;28;20032;-79
2023/05/16 04:25:52;;;;;;;8.82;0.95;;;8.60;99.90;;;;;;5000012;28;20064;-78
2023/05/16 04:28:18;;;;;;;5.82;0.73;;;8.60;99.90;;;;;;5024712;28;20033;-79
2023/05/16 04:30:44;;;;;;;8.57;0.75;;;8.60;99.90;;;;;;5001904;28;20041;-77
2023/05/16 04:33:11;;;;;;;6.13;0.60;;;8.70;99.90;;;;;;5012980;28;20033;-77
2023/05/16 04:35:38;;;;;;;4.45;0.60;;;8.70;99.90;;;;;;5008844;28;20385;-81
2023/05/16 04:38:05;;;;;;;4.55;0.88;;;8.80;99.90;;;;;;4994364;28;20503;-78
2023/05/16 04:40:31;;;;;;;9.82;0.75;;;8.90;99.90;;;;;;4987862;28;20044;-78
2023/05/16 04:42:58;;;;;;;7.30;0.90;;;9.00;99.90;;;;;;4997076;28;20025;-78
2023/05/16 04:45:24;;;;;;;10.68;0.80;;;8.90;99.90;;;;;;5021558;28;20048;-78
2023/05/16 04:47:51;;;;;;;9.75;1.05;;;9.00;99.90;;;;;;5016052;28;20491;-79
2023/05/16 04:50:17;;;;;;;6.40;0.95;;;8.90;99.90;;;;;;4986627;28;20075;-81
2023/05/16 04:52:43;;;;;;;4.82;0.70;;;8.90;99.90;;;;;;4994030;28;20052;-79
2023/05/16 04:55:10;;;;;;;7.05;1.02;;;8.80;99.90;;;;;;5012305;28;20310;-79
2023/05/16 04:57:36;;;;;;;6.47;0.85;;;8.90;99.90;;;;;;5010219;28;21191;-79
2023/05/16 05:00:06;;;;;;;7.47;1.20;;;8.90;99.90;;;;;;4971527;28;20033;-80
2023/05/16 05:02:33;;;;;;;6.43;1.00;;;9.00;99.90;;;;;;5003955;28;20041;-79
2023/05/16 05:04:59;;;;;;;5.55;0.90;;;9.20;99.90;;;;;;5019644;28;20041;-79
2023/05/16 05:07:27;;;;;;;5.20;0.70;;;9.30;99.90;;;;;;5001135;28;20052;-79
2023/05/16 05:09:54;;;;;;;5.20;0.60;;;9.50;99.90;;;;;;5003446;28;20064;-83
2023/05/16 05:12:21;;;;;;;3.35;0.57;;;9.60;99.90;;;;;;5012685;28;20316;-77
2023/05/16 05:14:48;;;;;;;7.60;0.77;;;9.60;99.90;;;;;;4990157;28;20040;-78
2023/05/16 05:17:15;;;;;;;6.20;0.70;;;9.70;99.90;;;;;;5011453;28;20021;-77
2023/05/16 05:19:41;;;;;;;5.13;0.60;;;9.90;99.90;;;;;;5002234;28;20036;-77
2023/05/16 05:22:07;;;;;;;4.15;1.08;;;10.10;99.90;;;;;;5011581;28;20048;-77
2023/05/16 05:24:34;;;;;;;8.07;0.95;;;10.20;99.90;;;;;;5005027;28;20303;-78
2023/05/16 05:27:01;;;;;;;7.40;1.15;;;10.20;99.90;;;;;;5021995;28;20032;-77
2023/05/16 05:29:27;;;;;;;9.30;0.90;;;10.10;99.90;;;;;;5007467;28;20032;-79
2023/05/16 05:31:53;;;;;;;5.18;0.93;;;10.10;99.90;;;;;;5009678;28;20036;-78
2023/05/16 05:34:19;;;;;;;8.43;0.85;;;10.10;99.90;;;;;;5010248;28;20052;-78
2023/05/16 05:36:46;;;;;;;7.82;1.02;;;10.20;99.90;;;;;;5007971;28;20496;-77
2023/05/16 05:39:12;;;;;;;7.22;0.70;;;10.20;99.90;;;;;;5001946;28;20041;-78
2023/05/16 05:41:38;;;;;;;5.60;0.98;;;10.40;99.90;;;;;;5004130;28;20037;-77
2023/05/16 05:44:05;;;;;;;11.65;0.77;;;10.60;99.90;;;;;;5015232;28;20036;-78
2023/05/16 05:46:33;;;;;;;7.97;0.60;;;10.70;99.90;;;;;;4999058;28;20613;-78
2023/05/16 05:48:59;;;;;;;6.30;0.82;;;10.80;99.90;;;;;;4991375;28;20232;-79
2023/05/16 05:51:26;;;;;;;8.15;0.82;;;10.80;99.90;;;;;;4988622;28;20041;-79
2023/05/16 05:53:53;;;;;;;4.43;0.50;;;10.90;99.90;;;;;;4992401;28;20059;-77
2023/05/16 05:56:20;;;;;;;5.72;1.13;;;11.00;99.90;;;;;;5006308;28;20062;-77
2023/05/16 05:58:46;;;;;;;6.32;1.10;;;11.00;99.90;;;;;;4987662;28;20522;-77
2023/05/16 06:01:12;;;;;;;5.38;0.90;;;11.00;99.90;;;;;;5007307;28;20029;-78
2023/05/16 06:03:39;;;;;;;5.95;0.70;;;10.90;99.90;;;;;;5021467;28;20037;-78
2023/05/16 06:06:05;;;;;;;6.82;0.85;;;10.90;99.90;;;;;;5021124;28;20037;-77
2023/05/16 06:08:32;;;;;;;4.93;0.60;;;10.90;99.90;;;;;;5013917;28;20607;-78
2023/05/16 06:10:59;;;;;;;10.63;1.45;;;10.90;99.90;;;;;;4967463;28;20036;-78
2023/05/16 06:13:25;;;;;;;8.88;0.70;;;10.90;99.90;;;;;;5007358;28;21243;-77
2023/05/16 06:15:52;;;;;;;6.25;0.95;;;10.90;99.90;;;;;;5003865;28;20045;-78
2023/05/16 06:18:19;;;;;;;3.65;0.50;;;10.80;99.90;;;;;;5005997;28;20041;-78
2023/05/16 06:20:46;;;;;;;13.70;0.88;;;10.80;99.90;;;;;;4985738;28;20335;-78
2023/05/16 06:23:12;;;;;;;4.70;0.93;;;10.90;99.90;;;;;;4993067;28;20037;-78
2023/05/16 06:25:39;;;;;;;11.05;1.05;;;11.10;99.90;;;;;;5000034;28;20037;-78
2023/05/16 06:28:05;;;;;;;7.85;0.70;;;11.30;99.90;;;;;;5015410;28;20036;-78
2023/05/16 06:30:31;;;;;;;5.55;0.60;;;11.40;99.90;;;;;;5004059;28;20033;-77
2023/05/16 06:32:57;;;;;;;4.60;0.50;;;11.40;99.90;;;;;;5005340;28;20037;-78
2023/05/16 06:35:24;;;;;;;8.05;0.70;;;11.40;99.90;;;;;;5005725;28;20636;-77
2023/05/16 06:37:50;;;;;;;5.30;0.60;;;11.40;99.90;;;;;;4989193;28;20464;-78
2023/05/16 06:40:16;;;;;;;7.35;0.60;;;11.40;99.90;;;;;;4997897;28;20392;-78
2023/05/16 06:42:43;;;;;;;4.38;0.60;;;11.60;99.90;;;;;;5009593;28;20076;-77
2023/05/16 06:45:11;;;;;;;6.32;0.70;;;11.80;99.90;;;;;;5018071;28;20037;-77
2023/05/16 06:47:37;;;;;;;4.53;0.57;;;11.90;99.90;;;;;;5019091;28;20035;-77
2023/05/16 06:50:04;;;;;;;5.35;0.60;;;11.90;99.90;;;;;;4990040;28;20037;-77
2023/05/16 06:52:30;;;;;;;5.55;0.68;;;11.70;99.90;;;;;;4991573;28;20029;-77
2023/05/16 06:54:57;;;;;;;5.72;0.65;;;11.70;99.90;;;;;;5006569;28;20041;-77
2023/05/16 06:57:23;;;;;;;8.32;1.02;;;11.80;99.90;;;;;;5007632;28;20029;-78
2023/05/16 06:59:49;;;;;;;6.10;0.65;;;11.80;99.90;;;;;;5005240;28;20384;-77
2023/05/16 07:02:15;;;;;;;5.15;0.70;;;11.80;99.90;;;;;;5014242;28;20037;-78
2023/05/16 07:04:42;;;;;;;6.57;0.70;;;11.90;99.90;;;;;;5021196;28;20024;-78
2023/05/16 07:07:08;;;;;;;7.53;1.10;;;12.10;99.90;;;;;;5023411;28;20036;-78
2023/05/16 07:09:35;;;;;;;7.00;0.70;;;12.30;99.90;;;;;;4995960;28;20045;-77
2023/05/16 07:12:01;;;;;;;4.10;0.70;;;12.40;99.90;;;;;;5010708;28;20032;-77
2023/05/16 07:14:27;;;;;;;11.88;0.68;;;12.70;99.90;;;;;;5011893;28;20416;-77
2023/05/16 07:16:53;;;;;;;3.28;0.50;;;13.00;99.90;;;;;;5011591;28;20379;-78
2023/05/16 07:19:20;;;;;;;3.25;0.57;;;13.20;99.90;;;;;;5007037;28;20037;-75
2023/05/16 07:21:46;;;;;;;5.72;0.50;;;13.50;99.90;;;;;;5008183;28;20032;-76
2023/05/16 07:24:12;;;;;;;10.38;1.33;;;13.80;99.90;;;;;;5012534;28;20036;-75
2023/05/16 07:26:39;;;;;;;7.32;0.88;;;14.20;99.90;;;;;;4996732;28;20061;-75
2023/05/16 07:29:05;;;;;;;4.95;0.55;;;14.50;99.90;;;;;;5015993;28;20675;-75
2023/05/16 07:31:31;;;;;;;3.92;0.40;;;14.90;99.90;;;;;;5021325;28;20534;-74
2023/05/16 07:33:57;;;;;;;9.25;0.75;;;15.20;99.90;;;;;;5019254;28;20044;-75
2023/05/16 07:36:24;;;;;;;5.10;0.50;;;15.20;99.90;;;;;;5011552;28;20418;-75
2023/05/16 07:38:50;;;;;;;2.47;0.40;;;15.00;99.90;;;;;;5010762;28;20671;-75
2023/05/16 07:41:16;;;;;;;3.15;0.30;;;14.90;99.90;;;;;;5008725;28;20376;-75
2023/05/16 07:43:42;;;;;;;5.78;0.40;;;15.00;99.90;;;;;;5013597;28;20377;-76
2023/05/16 07:46:10;;;;;;;5.07;0.40;;;15.10;99.90;;;;;;5012878;28;20045;-75
2023/05/16 07:48:36;;;;;;;6.32;0.47;;;15.20;99.90;;;;;;5015903;28;20025;-75
2023/05/16 07:51:02;;;;;;;3.60;0.50;;;15.30;99.90;;;;;;5012483;28;20407;-75
2023/05/16 07:53:29;;;;;;;3.88;0.40;;;15.50;99.90;;;;;;5005489;28;20021;-76
2023/05/16 07:55:55;;;;;;;1.80;0.45;;;15.50;99.90;;;;;;5000461;28;20418;-76
2023/05/16 07:58:21;;;;;;;2.75;0.30;;;15.50;99.90;;;;;;5013548;28;20016;-76
2023/05/16 08:00:48;;;;;;;2.83;0.40;;;15.40;99.90;;;;;;5004369;28;20037;-76
2023/05/16 08:03:14;;;;;;;5.18;0.52;;;15.30;99.90;;;;;;5012335;28;20091;-76
2023/05/16 08:05:41;;;;;;;3.03;0.43;;;15.20;99.90;;;;;;5024350;28;20033;-76
2023/05/16 08:08:07;;;;;;;3.45;0.40;;;15.00;99.90;;;;;;5013356;28;20033;-76
2023/05/16 08:10:33;;;;;;;4.70;0.50;;;14.70;99.90;;;;;;5012559;28;20036;-76
2023/05/16 08:13:00;;;;;;;3.20;0.30;;;14.60;99.90;;;;;;5007554;28;20480;-76
2023/05/16 08:15:27;;;;;;;2.47;0.40;;;14.70;99.90;;;;;;5022590;28;20464;-76
2023/05/16 08:17:57;;;;;;;2.55;0.28;;;14.80;99.90;;;;;;5011804;28;20365;-76
2023/05/16 08:20:26;;;;;;;5.45;0.40;;;14.90;99.90;;;;;;4986142;28;20032;-76
2023/05/16 08:22:53;;;;;;;3.45;0.35;;;15.10;99.90;;;;;;5012384;28;20032;-76
2023/05/16 08:25:20;;;;;;;5.35;0.60;;;15.40;99.90;;;;;;4993612;28;20041;-77
2023/05/16 08:27:49;;;;;;;4.07;1.25;;;15.60;99.90;;;;;;4996025;28;20170;-76
2023/05/16 08:30:15;;;;;;;4.43;0.45;;;15.50;99.90;;;;;;5007281;28;20575;-76
2023/05/16 08:32:42;;;;;;;1.70;0.20;;;15.40;99.90;;;;;;5023366;28;20025;-76
2023/05/16 08:35:09;;;;;;;1.85;0.25;;;15.30;99.90;;;;;;5019467;28;20037;-76
2023/05/16 08:37:36;;;;;;;1.60;0.20;;;15.10;99.90;;;;;;5012176;28;20049;-75
2023/05/16 08:40:04;;;;;;;0.98;0.20;;;14.90;99.90;;;;;;5004289;28;20041;-75
2023/05/16 08:42:32;;;;;;;2.08;0.30;;;14.70;99.90;;;;;;5004612;28;20040;-76
2023/05/16 08:44:58;;;;;;;1.80;0.30;;;14.60;99.90;;;;;;5011437;28;20664;-76
2023/05/16 08:47:29;;;;;;;3.38;0.40;;;14.70;99.90;;;;;;5009592;28;20036;-76
2023/05/16 08:49:57;;;;;;;4.57;0.47;;;15.00;99.90;;;;;;5002279;28;20044;-76
2023/05/16 08:52:30;;;;;;;2.80;0.30;;;15.20;99.90;;;;;;5018472;28;20060;-75
2023/05/16 08:55:06;;;;;;;3.28;0.30;;;15.60;99.90;;;;;;5005652;28;20036;-75
2023/05/16 08:57:34;;;;;;;3.30;0.38;;;15.90;99.90;;;;;;4984796;28;20040;-76
2023/05/16 09:00:00;;;;;;;1.73;0.28;;;16.10;98.80;;;;;;5002940;28;20413;-77
2023/05/16 09:02:27;;;;;;;2.05;0.40;;;16.30;98.70;;;;;;5012580;28;20056;-76
2023/05/16 09:04:56;;;;;;;2.15;0.30;;;16.40;98.70;;;;;;4994777;28;20040;-77
2023/05/16 09:07:22;;;;;;;1.73;0.20;;;16.60;98.40;;;;;;5009628;28;20388;-77
2023/05/16 09:09:48;;;;;;;2.47;0.22;;;16.60;98.60;;;;;;5003849;28;20624;-76
2023/05/16 09:12:15;;;;;;;1.33;0.30;;;16.50;98.50;;;;;;5020594;28;20033;-78
2023/05/16 09:14:42;;;;;;;1.65;0.20;;;16.50;98.70;;;;;;5019666;28;20041;-76
2023/05/16 09:17:08;;;;;;;1.50;0.30;;;16.60;98.70;;;;;;4986018;28;20037;-77
2023/05/16 09:19:43;;;;;;;3.55;0.50;;;16.70;98.10;;;;;;5003234;28;20048;-76
2023/05/16 09:22:13;;;;;;;4.38;0.40;;;16.80;97.20;;;;;;4993406;28;20033;-78
2023/05/16 09:24:43;;;;;;;4.53;1.52;;;16.60;96.80;;;;;;5010427;28;20041;-78
2023/05/16 09:27:14;;;;;;;3.25;0.40;;;16.50;97.30;;;;;;4995726;28;20045;-78
2023/05/16 09:29:49;;;;;;;3.13;0.47;;;16.70;96.60;;;;;;5002077;28;20468;-77
2023/05/16 09:32:17;;;;;;;3.15;0.47;;;16.50;95.70;;;;;;4997709;28;20892;-78
2023/05/16 09:34:48;;;;;;;3.15;0.30;;;16.20;95.70;;;;;;5019607;28;20498;-77
2023/05/16 09:37:15;;;;;;;1.05;0.22;;;16.00;96.20;;;;;;5016861;28;20723;-78
2023/05/16 09:39:49;;;;;;;2.45;0.30;;;16.00;96.80;;;;;;4986275;28;20044;-78
2023/05/16 09:42:18;;;;;;;1.45;0.25;;;16.20;97.40;;;;;;5011707;28;20028;-81
2023/05/16 09:44:53;;;;;;;5.43;2.15;;;16.30;97.70;;;;;;4989471;28;20068;-81
2023/05/16 09:47:20;;;;;;;2.85;0.77;;;16.40;97.70;;;;;;4989381;28;20047;-78
2023/05/16 09:49:51;;;;;;;1.65;0.50;;;16.50;98.00;;;;;;4978786;28;20040;-80
2023/05/16 09:52:18;;;;;;;4.25;0.80;;;16.80;97.70;;;;;;5007118;28;20048;-77
2023/05/16 09:54:48;;;;;;;2.13;0.30;;;16.90;96.70;;;;;;5015262;28;20037;-77
2023/05/16 09:57:22;;;;;;;3.05;0.30;;;17.20;96.50;;;;;;5011955;28;20039;-78
2023/05/16 09:59:49;;;;;;;4.57;0.50;;;17.60;96.30;;;;;;5004772;28;20036;-76
2023/05/16 10:02:16;;;;;;;5.13;1.17;;;17.90;95.40;;;;;;5008514;28;20028;-75
2023/05/16 10:04:42;;;;;;;3.80;0.60;;;18.10;95.10;;;;;;5011248;28;20072;-74
2023/05/16 10:07:09;;;;;;;3.10;0.70;;;17.90;94.90;;;;;;5005545;28;20041;-75
2023/05/16 10:09:38;;;;;;;2.92;0.40;;;17.50;94.90;;;;;;4980536;28;21147;-75
2023/05/16 10:12:07;;;;;;;3.92;0.50;;;17.10;95.40;;;;;;5006959;28;20519;-75
2023/05/16 10:14:35;;;;;;;3.50;0.45;;;16.80;96.10;;;;;;5001478;28;20041;-76
2023/05/16 10:17:05;;;;;;;2.30;0.30;;;16.80;96.60;;;;;;5017984;28;20045;-75
2023/05/16 10:19:33;;;;;;;4.22;0.60;;;17.10;96.70;;;;;;5004520;28;20047;-75
2023/05/16 10:22:05;;;;;;;2.08;0.22;;;17.30;96.10;;;;;;4989885;28;20590;-75
2023/05/16 10:24:47;;;;;;;5.07;0.50;;;17.30;95.90;;;;;;4990899;28;20045;-76
2023/05/16 10:27:15;;;;;;;2.22;0.32;;;17.30;95.90;;;;;;4989583;28;20382;-76
2023/05/16 10:29:42;;;;;;;2.85;0.30;;;17.50;96.10;;;;;;4997933;28;21475;-76
2023/05/16 10:32:09;;;;;;;4.22;0.30;;;17.80;95.90;;;;;;4991674;28;20044;-76
2023/05/16 10:34:36;;;;;;;2.10;0.40;;;18.10;94.70;;;;;;5005875;28;20040;-76
2023/05/16 10:37:04;;;;;;;4.22;0.60;;;18.30;94.00;;;;;;5022841;28;20029;-75
2023/05/16 10:39:32;;;;;;;6.03;2.40;;;18.10;92.90;;;;;;5009956;28;20654;-75
2023/05/16 10:41:58;;;;;;;9.93;3.85;;;17.90;93.20;;;;;;5009190;28;20415;-76
2023/05/16 10:44:25;;;;;;;6.60;2.45;;;17.80;93.60;;;;;;5013390;28;20037;-76
2023/05/16 10:46:51;;;;;;;4.60;1.10;;;18.20;93.70;;;;;;4995693;28;20396;-76
2023/05/16 10:49:23;;;;;;;4.43;0.80;;;18.60;92.90;;;;;;5006819;28;20036;-76
2023/05/16 10:52:01;;;;;;;6.07;0.57;;;19.00;92.50;;;;;;4975495;28;20061;-76
2023/05/16 10:54:42;;;;;;;2.88;0.40;;;19.70;91.30;;;;;;5000673;28;20033;-76
2023/05/16 10:57:22;;;;;;;1.90;0.30;;;20.00;90.30;;;;;;5019330;28;20033;-76
2023/05/16 10:59:49;;;;;;;3.08;0.43;;;19.90;88.30;;;;;;5009089;28;20033;-76
2023/05/16 11:02:27;;;;;;;2.88;0.50;;;19.40;85.60;;;;;;5008015;28;20048;-76
2023/05/16 11:04:56;;;;;;;2.35;0.40;;;18.90;85.20;;;;;;4993994;28;20408;-76
2023/05/16 11:07:24;;;;;;;3.83;0.47;;;18.50;84.80;;;;;;4991249;28;20044;-75
2023/05/16 11:10:05;;;;;;;1.98;0.40;;;18.20;86.00;;;;;;5004873;28;20814;-76
2023/05/16 11:12:49;;;;;;;2.95;0.50;;;18.20;87.80;;;;;;4994081;28;20544;-76
2023/05/16 11:15:26;;;;;;;3.42;0.40;;;18.80;87.90;;;;;;5020112;28;20037;-75
2023/05/16 11:18:16;;;;;;;4.22;0.40;;;19.60;86.50;;;;;;5019295;28;20071;-75
2023/05/16 11:20:42;;;;;;;3.35;0.43;;;20.30;84.30;;;;;;4987765;28;20497;-75
2023/05/16 11:23:18;;;;;;;2.17;0.40;;;20.90;82.80;;;;;;4991661;28;20830;-75
2023/05/16 11:25:45;;;;;;;0.93;0.40;;;21.50;79.50;;;;;;5007953;28;20387;-75
2023/05/16 11:28:13;;;;;;;2.08;0.40;;;22.00;75.50;;;;;;5007646;28;20032;-75
2023/05/16 11:30:47;;;;;;;3.33;0.50;;;22.00;74.40;;;;;;5000330;28;20033;-75
2023/05/16 11:33:15;;;;;;;2.70;0.82;;;22.10;72.70;;;;;;5010782;28;20043;-75
2023/05/16 11:35:42;;;;;;;2.35;0.50;;;21.60;71.70;;;;;;5017419;28;20029;-75
2023/05/16 11:38:17;;;;;;;2.35;0.50;;;21.20;72.10;;;;;;5019662;28;20044;-75
2023/05/16 11:40:44;;;;;;;5.93;0.60;;;20.80;72.40;;;;;;4991238;28;20051;-74
2023/05/16 11:43:16;;;;;;;3.20;1.10;;;20.50;73.20;;;;;;5009488;28;20036;-75
2023/05/16 11:45:44;;;;;;;3.45;0.68;;;21.10;73.40;;;;;;5010225;28;20123;-75
2023/05/16 11:48:10;;;;;;;5.65;2.65;;;21.60;72.40;;;;;;4995126;28;20045;-75
2023/05/16 11:50:37;;;;;;;2.20;0.80;;;21.80;71.40;;;;;;5001503;28;20053;-75
2023/05/16 11:53:03;;;;;;;2.25;0.60;;;21.80;71.40;;;;;;5012276;28;20535;-75
2023/05/16 11:55:30;;;;;;;3.45;0.60;;;21.70;68.90;;;;;;5012776;28;21121;-74
2023/05/16 11:57:58;;;;;;;3.05;0.50;;;21.90;68.80;;;;;;5018050;28;20041;-75
2023/05/16 12:00:26;;;;;;;6.00;0.52;;;22.60;68.70;;;;;;5012566;28;20041;-75
2023/05/16 12:03:03;;;;;;;8.27;5.30;;;22.80;66.50;;;;;;5001402;28;20033;-75
2023/05/16 12:05:31;;;;;;;4.38;1.25;;;22.30;66.40;;;;;;5011686;28;20029;-75
2023/05/16 12:07:58;;;;;;;5.00;0.80;;;21.70;66.30;;;;;;5011478;28;20453;-74
2023/05/16 12:10:25;;;;;;;4.00;1.25;;;21.10;66.90;;;;;;5002798;28;20033;-74
2023/05/16 12:12:51;;;;;;;2.58;0.52;;;20.90;68.20;;;;;;4994315;28;20025;-74
2023/05/16 12:15:18;;;;;;;1.75;0.60;;;20.80;67.80;;;;;;5011004;28;20036;-74
2023/05/16 12:17:45;;;;;;;2.92;1.00;;;20.50;67.90;;;;;;5018302;28;23110;-74
2023/05/16 12:20:13;;;;;;;1.38;0.40;;;20.20;68.70;;;;;;5012788;28;20036;-74
2023/05/16 12:22:40;;;;;;;3.90;0.50;;;20.00;69.60;;;;;;5020835;28;20021;-74
2023/05/16 12:25:27;;;;;;;2.63;0.77;;;20.00;70.10;;;;;;4993578;28;20036;-74
2023/05/16 12:27:56;;;;;;;2.10;0.60;;;20.00;69.80;;;;;;4993976;28;20033;-74
2023/05/16 12:30:24;;;;;;;3.75;0.57;;;20.00;70.10;;;;;;4983485;28;20380;-74
2023/05/16 12:33:01;;;;;;;3.83;0.50;;;20.30;70.50;;;;;;5008703;28;20052;-74
2023/05/16 12:35:32;;;;;;;2.65;0.60;;;20.40;70.00;;;;;;4994442;28;21417;-72
2023/05/16 12:38:02;;;;;;;6.32;3.00;;;20.20;69.90;;;;;;5014364;28;20029;-72
2023/05/16 12:40:29;;;;;;;5.18;1.63;;;19.90;70.40;;;;;;5011394;28;20840;-72
2023/05/16 12:42:55;;;;;;;3.28;0.60;;;19.90;70.90;;;;;;5002937;28;20041;-72
2023/05/16 12:45:22;;;;;;;5.70;1.00;;;19.70;70.60;;;;;;4997214;28;20449;-72
2023/05/16 12:47:49;;;;;;;3.03;0.50;;;19.50;70.90;;;;;;5026761;28;20033;-71
2023/05/16 12:50:18;;;;;;;3.85;0.40;;;19.20;71.10;;;;;;4982456;28;20689;-73
2023/05/16 12:52:58;;;;;;;3.97;0.50;;;19.20;71.80;;;;;;4993139;28;20041;-73